sensor_id;sensor_type;location;lat;lon;timestamp;pressure;altitude;pressure_sealevel;temperature;humidity
62248;BME280;48237;50.140;8.486;2022-07-06T00:00:22;100262.62;;;19.62;46.39
62248;BME280;48237;50.140;8.486;2022-07-06T00:00:23;100262.84;;;19.83;46.41
62248;BME280;48237;50.140;8.486;2022-07-06T00:02:50;100268.82;;;19.76;47.56
62248;BME280;48237;50.140;8.486;2022-07-06T00:02:51;100268.36;;;20.02;47.57
62248;BME280;48237;50.140;8.486;2022-07-06T00:05:18;100265.37;;;19.71;47.32
62248;BME280;48237;50.140;8.486;2022-07-06T00:05:20;100265.43;;;19.36;47.41
62248;BME280;48237;50.140;8.486;2022-07-06T00:07:46;100264.98;;;19.13;49.78
62248;BME280;48237;50.140;8.486;2022-07-06T00:07:47;100266.07;;;19.14;49.82
62248;BME280;48237;50.140;8.486;2022-07-06T00:10:13;100268.08;;;19.31;49.24
62248;BME280;48237;50.140;8.486;2022-07-06T00:10:15;100268.15;;;19.57;49.11
62248;BME280;48237;50.140;8.486;2022-07-06T00:12:45;100271.46;;;19.52;49.09
62248;BME280;48237;50.140;8.486;2022-07-06T00:12:46;100272.13;;;19.73;49.10
62248;BME280;48237;50.140;8.486;2022-07-06T00:15:13;100274.92;;;19.73;48.75
62248;BME280;48237;50.140;8.486;2022-07-06T00:15:14;100274.38;;;19.51;48.72
62248;BME280;48237;50.140;8.486;2022-07-06T00:17:41;100276.79;;;19.16;50.12
62248;BME280;48237;50.140;8.486;2022-07-06T00:17:43;100275.89;;;18.61;50.32
62248;BME280;48237;50.140;8.486;2022-07-06T00:20:10;100278.77;;;19.39;50.00
62248;BME280;48237;50.140;8.486;2022-07-06T00:20:11;100277.32;;;19.64;49.91
62248;BME280;48237;50.140;8.486;2022-07-06T00:22:38;100275.03;;;19.31;48.67
62248;BME280;48237;50.140;8.486;2022-07-06T00:22:39;100274.50;;;19.82;48.63
62248;BME280;48237;50.140;8.486;2022-07-06T00:25:08;100276.03;;;18.94;51.43
62248;BME280;48237;50.140;8.486;2022-07-06T00:25:09;100276.83;;;18.91;51.54
62248;BME280;48237;50.140;8.486;2022-07-06T00:27:36;100277.52;;;19.29;50.79
62248;BME280;48237;50.140;8.486;2022-07-06T00:27:37;100277.40;;;19.30;50.83
62248;BME280;48237;50.140;8.486;2022-07-06T00:30:06;100280.05;;;18.64;51.94
62248;BME280;48237;50.140;8.486;2022-07-06T00:30:07;100281.14;;;18.64;51.93
62248;BME280;48237;50.140;8.486;2022-07-06T00:32:35;100285.76;;;18.67;50.98
62248;BME280;48237;50.140;8.486;2022-07-06T00:32:36;100285.81;;;18.89;50.99
62248;BME280;48237;50.140;8.486;2022-07-06T00:35:05;100283.65;;;18.69;51.59
62248;BME280;48237;50.140;8.486;2022-07-06T00:35:06;100283.73;;;18.70;51.55
62248;BME280;48237;50.140;8.486;2022-07-06T00:37:35;100277.81;;;19.14;51.04
62248;BME280;48237;50.140;8.486;2022-07-06T00:37:36;100277.04;;;19.16;50.97
62248;BME280;48237;50.140;8.486;2022-07-06T00:40:06;100277.58;;;19.06;50.91
62248;BME280;48237;50.140;8.486;2022-07-06T00:40:07;100277.28;;;19.07;50.89
62248;BME280;48237;50.140;8.486;2022-07-06T00:42:40;100277.39;;;18.47;52.42
62248;BME280;48237;50.140;8.486;2022-07-06T00:42:45;100277.22;;;18.46;52.41
62248;BME280;48237;50.140;8.486;2022-07-06T00:45:11;100277.85;;;18.42;51.80
62248;BME280;48237;50.140;8.486;2022-07-06T00:45:13;100277.03;;;18.27;51.68
62248;BME280;48237;50.140;8.486;2022-07-06T00:47:41;100275.49;;;19.05;50.82
62248;BME280;48237;50.140;8.486;2022-07-06T00:47:42;100275.09;;;18.84;50.82
62248;BME280;48237;50.140;8.486;2022-07-06T00:50:12;100281.61;;;18.70;51.80
62248;BME280;48237;50.140;8.486;2022-07-06T00:50:15;100281.32;;;18.70;51.80
62248;BME280;48237;50.140;8.486;2022-07-06T00:52:45;100279.70;;;18.27;53.07
62248;BME280;48237;50.140;8.486;2022-07-06T00:52:46;100279.72;;;18.48;53.08
62248;BME280;48237;50.140;8.486;2022-07-06T00:55:14;100279.77;;;18.41;52.57
62248;BME280;48237;50.140;8.486;2022-07-06T00:55:17;100280.88;;;18.39;52.60
62248;BME280;48237;50.140;8.486;2022-07-06T00:57:46;100285.96;;;17.10;55.94
62248;BME280;48237;50.140;8.486;2022-07-06T00:57:47;100284.03;;;17.40;55.87
62248;BME280;48237;50.140;8.486;2022-07-06T01:00:16;100278.93;;;18.10;53.90
62248;BME280;48237;50.140;8.486;2022-07-06T01:00:17;100278.66;;;18.37;53.90
62248;BME280;48237;50.140;8.486;2022-07-06T01:02:46;100280.28;;;17.51;55.79
62248;BME280;48237;50.140;8.486;2022-07-06T01:02:47;100279.97;;;17.51;55.85
62248;BME280;48237;50.140;8.486;2022-07-06T01:05:16;100284.12;;;17.37;55.68
62248;BME280;48237;50.140;8.486;2022-07-06T01:05:16;100283.70;;;17.57;55.71
62248;BME280;48237;50.140;8.486;2022-07-06T01:07:46;100282.74;;;18.40;54.37
62248;BME280;48237;50.140;8.486;2022-07-06T01:07:47;100282.31;;;17.92;54.33
62248;BME280;48237;50.140;8.486;2022-07-06T01:10:17;100281.77;;;18.21;53.89
62248;BME280;48237;50.140;8.486;2022-07-06T01:10:18;100282.39;;;18.42;53.91
62248;BME280;48237;50.140;8.486;2022-07-06T01:12:47;100276.58;;;18.41;52.62
62248;BME280;48237;50.140;8.486;2022-07-06T01:12:48;100277.18;;;18.85;52.69
62248;BME280;48237;50.140;8.486;2022-07-06T01:15:18;100274.84;;;18.62;53.51
62248;BME280;48237;50.140;8.486;2022-07-06T01:15:19;100274.68;;;18.15;53.55
62248;BME280;48237;50.140;8.486;2022-07-06T01:17:46;100277.36;;;17.97;55.47
62248;BME280;48237;50.140;8.486;2022-07-06T01:17:48;100279.81;;;17.97;55.53
62248;BME280;48237;50.140;8.486;2022-07-06T01:20:17;100274.80;;;18.38;54.31
62248;BME280;48237;50.140;8.486;2022-07-06T01:20:17;100275.39;;;18.37;54.31
62248;BME280;48237;50.140;8.486;2022-07-06T01:22:47;100278.50;;;18.32;53.57
62248;BME280;48237;50.140;8.486;2022-07-06T01:22:48;100278.74;;;18.55;53.60
62248;BME280;48237;50.140;8.486;2022-07-06T01:25:16;100285.18;;;17.86;55.20
62248;BME280;48237;50.140;8.486;2022-07-06T01:25:17;100285.18;;;17.86;55.19
62248;BME280;48237;50.140;8.486;2022-07-06T01:27:47;100288.73;;;17.51;55.40
62248;BME280;48237;50.140;8.486;2022-07-06T01:27:47;100288.12;;;17.74;55.40
62248;BME280;48237;50.140;8.486;2022-07-06T01:30:17;100288.70;;;17.53;55.81
62248;BME280;48237;50.140;8.486;2022-07-06T01:30:18;100288.64;;;17.82;55.78
62248;BME280;48237;50.140;8.486;2022-07-06T01:32:46;100283.21;;;17.48;57.67
62248;BME280;48237;50.140;8.486;2022-07-06T01:32:47;100283.85;;;17.22;57.66
62248;BME280;48237;50.140;8.486;2022-07-06T01:35:15;100281.81;;;16.80;58.71
62248;BME280;48237;50.140;8.486;2022-07-06T01:35:16;100281.81;;;16.81;58.69
62248;BME280;48237;50.140;8.486;2022-07-06T01:37:44;100289.53;;;16.32;60.53
62248;BME280;48237;50.140;8.486;2022-07-06T01:37:45;100289.88;;;16.06;60.50
62248;BME280;48237;50.140;8.486;2022-07-06T01:40:12;100288.81;;;16.14;61.42
62248;BME280;48237;50.140;8.486;2022-07-06T01:40:14;100287.98;;;15.95;61.34
62248;BME280;48237;50.140;8.486;2022-07-06T01:42:41;100288.93;;;16.66;59.36
62248;BME280;48237;50.140;8.486;2022-07-06T01:42:42;100289.53;;;16.66;59.36
62248;BME280;48237;50.140;8.486;2022-07-06T01:45:11;100284.60;;;17.00;58.49
62248;BME280;48237;50.140;8.486;2022-07-06T01:45:12;100284.47;;;17.01;58.46
62248;BME280;48237;50.140;8.486;2022-07-06T01:51:27;100287.24;;;16.86;59.72
62248;BME280;48237;50.140;8.486;2022-07-06T01:55:08;100285.20;;;17.13;57.43
62248;BME280;48237;50.140;8.486;2022-07-06T01:56:19;100284.14;;;16.20;59.20
62248;BME280;48237;50.140;8.486;2022-07-06T01:57:36;100286.27;;;15.63;62.27
62248;BME280;48237;50.140;8.486;2022-07-06T01:58:48;100286.45;;;16.55;60.42
62248;BME280;48237;50.140;8.486;2022-07-06T02:00:07;100283.22;;;16.56;59.89
62248;BME280;48237;50.140;8.486;2022-07-06T02:01:19;100280.51;;;16.25;60.00
62248;BME280;48237;50.140;8.486;2022-07-06T02:02:37;100282.04;;;16.11;60.52
62248;BME280;48237;50.140;8.486;2022-07-06T02:03:47;100279.48;;;16.40;59.98
62248;BME280;48237;50.140;8.486;2022-07-06T02:05:06;100276.02;;;17.29;58.02
62248;BME280;48237;50.140;8.486;2022-07-06T02:06:16;100278.27;;;16.75;58.95
62248;BME280;48237;50.140;8.486;2022-07-06T02:07:34;100280.70;;;16.34;59.13
62248;BME280;48237;50.140;8.486;2022-07-06T02:08:45;100281.27;;;16.15;60.41
62248;BME280;48237;50.140;8.486;2022-07-06T02:10:04;100283.35;;;16.04;60.36
62248;BME280;48237;50.140;8.486;2022-07-06T02:11:14;100285.50;;;15.65;61.71
62248;BME280;48237;50.140;8.486;2022-07-06T02:12:33;100283.31;;;16.51;60.02
62248;BME280;48237;50.140;8.486;2022-07-06T02:13:44;100284.43;;;16.31;60.08
62248;BME280;48237;50.140;8.486;2022-07-06T02:15:03;100280.16;;;16.98;58.12
62248;BME280;48237;50.140;8.486;2022-07-06T02:16:13;100281.12;;;16.23;59.73
62248;BME280;48237;50.140;8.486;2022-07-06T02:17:31;100286.04;;;16.01;59.99
62248;BME280;48237;50.140;8.486;2022-07-06T02:18:43;100285.79;;;15.27;62.08
62248;BME280;48237;50.140;8.486;2022-07-06T02:19:59;100284.93;;;16.06;60.27
62248;BME280;48237;50.140;8.486;2022-07-06T02:21:12;100288.26;;;15.91;61.15
62248;BME280;48237;50.140;8.486;2022-07-06T02:22:28;100286.55;;;15.72;60.16
62248;BME280;48237;50.140;8.486;2022-07-06T02:23:40;100286.76;;;15.66;61.06
62248;BME280;48237;50.140;8.486;2022-07-06T02:24:57;100285.09;;;15.60;60.99
62248;BME280;48237;50.140;8.486;2022-07-06T02:26:10;100288.18;;;15.83;60.06
62248;BME280;48237;50.140;8.486;2022-07-06T02:27:24;100287.57;;;15.56;60.99
62248;BME280;48237;50.140;8.486;2022-07-06T02:28:39;100285.15;;;15.75;61.33
62248;BME280;48237;50.140;8.486;2022-07-06T02:29:52;100283.18;;;16.48;59.58
62248;BME280;48237;50.140;8.486;2022-07-06T02:31:07;100282.74;;;16.57;58.58
62248;BME280;48237;50.140;8.486;2022-07-06T02:32:20;100282.07;;;15.87;59.39
62248;BME280;48237;50.140;8.486;2022-07-06T02:33:36;100282.66;;;16.61;58.53
62248;BME280;48237;50.140;8.486;2022-07-06T02:34:48;100280.55;;;16.79;57.63
62248;BME280;48237;50.140;8.486;2022-07-06T02:36:05;100283.22;;;16.18;60.31
62248;BME280;48237;50.140;8.486;2022-07-06T02:37:15;100281.26;;;15.47;60.22
62248;BME280;48237;50.140;8.486;2022-07-06T02:38:33;100284.87;;;16.16;59.83
62248;BME280;48237;50.140;8.486;2022-07-06T02:39:43;100284.77;;;15.54;61.22
62248;BME280;48237;50.140;8.486;2022-07-06T02:41:04;100285.74;;;15.34;61.24
62248;BME280;48237;50.140;8.486;2022-07-06T02:42:12;100284.31;;;16.01;59.55
62248;BME280;48237;50.140;8.486;2022-07-06T02:43:32;100280.46;;;16.49;58.19
62248;BME280;48237;50.140;8.486;2022-07-06T02:44:44;100283.90;;;16.34;58.99
62248;BME280;48237;50.140;8.486;2022-07-06T02:46:01;100287.15;;;15.99;60.54
62248;BME280;48237;50.140;8.486;2022-07-06T02:47:11;100287.91;;;15.90;60.67
62248;BME280;48237;50.140;8.486;2022-07-06T02:48:28;100284.23;;;15.38;61.92
62248;BME280;48237;50.140;8.486;2022-07-06T02:49:41;100281.50;;;16.56;59.15
62248;BME280;48237;50.140;8.486;2022-07-06T02:50:56;100284.42;;;15.27;62.68
62248;BME280;48237;50.140;8.486;2022-07-06T02:52:09;100291.32;;;14.40;64.37
62248;BME280;48237;50.140;8.486;2022-07-06T02:53:24;100283.00;;;14.38;64.34
62248;BME280;48237;50.140;8.486;2022-07-06T02:54:37;100287.35;;;14.82;64.21
62248;BME280;48237;50.140;8.486;2022-07-06T02:55:52;100287.12;;;14.64;63.80
62248;BME280;48237;50.140;8.486;2022-07-06T02:57:05;100282.88;;;15.65;61.35
62248;BME280;48237;50.140;8.486;2022-07-06T02:58:21;100284.19;;;15.36;61.32
62248;BME280;48237;50.140;8.486;2022-07-06T02:59:33;100286.10;;;15.57;61.34
62248;BME280;48237;50.140;8.486;2022-07-06T03:00:50;100287.56;;;14.81;63.68
62248;BME280;48237;50.140;8.486;2022-07-06T03:02:01;100289.13;;;14.22;65.12
62248;BME280;48237;50.140;8.486;2022-07-06T03:03:19;100290.59;;;14.50;64.89
62248;BME280;48237;50.140;8.486;2022-07-06T03:04:29;100292.05;;;15.29;63.71
62248;BME280;48237;50.140;8.486;2022-07-06T03:05:46;100287.87;;;15.06;62.24
62248;BME280;48237;50.140;8.486;2022-07-06T03:06:58;100288.89;;;15.15;62.56
62248;BME280;48237;50.140;8.486;2022-07-06T03:08:15;100287.24;;;15.10;62.70
62248;BME280;48237;50.140;8.486;2022-07-06T03:09:27;100285.27;;;15.57;61.41
62248;BME280;48237;50.140;8.486;2022-07-06T03:10:43;100287.69;;;15.29;60.64
62248;BME280;48237;50.140;8.486;2022-07-06T03:11:57;100285.89;;;14.40;63.84
62248;BME280;48237;50.140;8.486;2022-07-06T03:13:12;100286.27;;;15.23;62.12
62248;BME280;48237;50.140;8.486;2022-07-06T03:14:25;100288.47;;;15.19;61.92
62248;BME280;48237;50.140;8.486;2022-07-06T03:15:40;100287.35;;;15.15;61.78
62248;BME280;48237;50.140;8.486;2022-07-06T03:16:54;100288.92;;;15.57;62.12
62248;BME280;48237;50.140;8.486;2022-07-06T03:18:08;100291.18;;;15.04;62.23
62248;BME280;48237;50.140;8.486;2022-07-06T03:19:23;100292.75;;;14.29;65.07
62248;BME280;48237;50.140;8.486;2022-07-06T03:20:36;100295.45;;;15.19;62.92
62248;BME280;48237;50.140;8.486;2022-07-06T03:21:51;100290.97;;;14.94;63.38
62248;BME280;48237;50.140;8.486;2022-07-06T03:23:05;100288.86;;;15.31;62.48
62248;BME280;48237;50.140;8.486;2022-07-06T03:24:20;100289.02;;;14.89;62.80
62248;BME280;48237;50.140;8.486;2022-07-06T03:25:34;100291.85;;;15.73;61.23
62248;BME280;48237;50.140;8.486;2022-07-06T03:26:48;100292.57;;;15.37;61.50
62248;BME280;48237;50.140;8.486;2022-07-06T03:28:04;100293.32;;;15.13;62.33
62248;BME280;48237;50.140;8.486;2022-07-06T03:29:15;100295.76;;;14.36;64.31
62248;BME280;48237;50.140;8.486;2022-07-06T03:30:32;100295.00;;;14.69;63.60
62248;BME280;48237;50.140;8.486;2022-07-06T03:31:45;100297.27;;;15.29;62.38
62248;BME280;48237;50.140;8.486;2022-07-06T03:33:00;100299.37;;;14.57;64.30
62248;BME280;48237;50.140;8.486;2022-07-06T03:34:13;100305.52;;;13.87;65.69
62248;BME280;48237;50.140;8.486;2022-07-06T03:35:28;100299.22;;;14.34;65.94
62248;BME280;48237;50.140;8.486;2022-07-06T03:36:44;100299.99;;;14.42;65.20
62248;BME280;48237;50.140;8.486;2022-07-06T03:37:57;100303.62;;;14.91;63.95
62248;BME280;48237;50.140;8.486;2022-07-06T03:39:13;100305.67;;;14.48;64.81
62248;BME280;48237;50.140;8.486;2022-07-06T03:40:24;100307.07;;;14.03;66.18
62248;BME280;48237;50.140;8.486;2022-07-06T03:41:44;100299.54;;;14.60;65.15
62248;BME280;48237;50.140;8.486;2022-07-06T03:42:53;100303.23;;;14.15;65.51
62248;BME280;48237;50.140;8.486;2022-07-06T03:44:13;100303.04;;;14.02;66.40
62248;BME280;48237;50.140;8.486;2022-07-06T03:45:22;100304.80;;;14.54;65.24
62248;BME280;48237;50.140;8.486;2022-07-06T03:46:41;100306.10;;;14.21;65.89
62248;BME280;48237;50.140;8.486;2022-07-06T03:47:50;100307.20;;;14.11;66.92
62248;BME280;48237;50.140;8.486;2022-07-06T03:49:09;100313.85;;;14.14;67.31
62248;BME280;48237;50.140;8.486;2022-07-06T03:50:20;100309.97;;;14.15;68.02
62248;BME280;48237;50.140;8.486;2022-07-06T03:51:38;100306.98;;;13.26;71.00
62248;BME280;48237;50.140;8.486;2022-07-06T03:52:47;100307.01;;;13.66;69.45
62248;BME280;48237;50.140;8.486;2022-07-06T03:54:06;100307.06;;;13.36;68.99
62248;BME280;48237;50.140;8.486;2022-07-06T03:55:15;100307.14;;;13.70;68.78
62248;BME280;48237;50.140;8.486;2022-07-06T03:56:35;100307.28;;;13.91;67.62
62248;BME280;48237;50.140;8.486;2022-07-06T03:57:43;100307.81;;;14.61;65.79
62248;BME280;48237;50.140;8.486;2022-07-06T03:59:05;100313.42;;;13.91;67.83
62248;BME280;48237;50.140;8.486;2022-07-06T04:00:13;100311.10;;;14.06;68.31
62248;BME280;48237;50.140;8.486;2022-07-06T04:01:33;100311.12;;;14.31;67.45
62248;BME280;48237;50.140;8.486;2022-07-06T04:02:42;100309.37;;;14.26;66.84
62248;BME280;48237;50.140;8.486;2022-07-06T04:04:04;100314.25;;;13.97;68.38
62248;BME280;48237;50.140;8.486;2022-07-06T04:05:10;100312.30;;;14.15;67.44
62248;BME280;48237;50.140;8.486;2022-07-06T04:06:31;100315.28;;;14.13;67.27
62248;BME280;48237;50.140;8.486;2022-07-06T04:07:39;100317.07;;;14.21;67.14
62248;BME280;48237;50.140;8.486;2022-07-06T04:08:59;100317.33;;;13.88;68.17
62248;BME280;48237;50.140;8.486;2022-07-06T04:10:08;100320.36;;;13.92;69.37
62248;BME280;48237;50.140;8.486;2022-07-06T04:11:28;100311.04;;;14.45;66.92
62248;BME280;48237;50.140;8.486;2022-07-06T04:12:41;100312.50;;;14.53;66.73
62248;BME280;48237;50.140;8.486;2022-07-06T04:13:56;100312.93;;;14.08;67.45
62248;BME280;48237;50.140;8.486;2022-07-06T04:15:12;100316.79;;;13.54;70.80
62248;BME280;48237;50.140;8.486;2022-07-06T04:16:24;100315.58;;;13.24;71.24
62248;BME280;48237;50.140;8.486;2022-07-06T04:17:40;100317.16;;;13.31;70.46
62248;BME280;48237;50.140;8.486;2022-07-06T04:18:52;100315.83;;;14.08;68.72
62248;BME280;48237;50.140;8.486;2022-07-06T04:20:09;100313.91;;;14.57;67.15
62248;BME280;48237;50.140;8.486;2022-07-06T04:21:21;100313.70;;;14.91;66.16
62248;BME280;48237;50.140;8.486;2022-07-06T04:22:38;100311.10;;;14.35;68.00
62248;BME280;48237;50.140;8.486;2022-07-06T04:23:49;100314.59;;;14.87;65.27
62248;BME280;48237;50.140;8.486;2022-07-06T04:25:06;100315.10;;;14.81;65.20
62248;BME280;48237;50.140;8.486;2022-07-06T04:26:18;100316.12;;;15.57;63.67
62248;BME280;48237;50.140;8.486;2022-07-06T04:27:37;100321.02;;;15.50;63.72
62248;BME280;48237;50.140;8.486;2022-07-06T04:28:47;100321.93;;;14.30;67.14
62248;BME280;48237;50.140;8.486;2022-07-06T04:30:08;100318.12;;;15.08;66.24
62248;BME280;48237;50.140;8.486;2022-07-06T04:31:15;100318.62;;;13.98;67.30
62248;BME280;48237;50.140;8.486;2022-07-06T04:32:37;100317.90;;;14.43;67.15
62248;BME280;48237;50.140;8.486;2022-07-06T04:33:43;100326.95;;;14.13;68.37
62248;BME280;48237;50.140;8.486;2022-07-06T04:35:06;100321.22;;;14.29;69.36
62248;BME280;48237;50.140;8.486;2022-07-06T04:36:11;100316.75;;;14.43;68.56
62248;BME280;48237;50.140;8.486;2022-07-06T04:37:38;100317.83;;;14.42;69.57
62248;BME280;48237;50.140;8.486;2022-07-06T04:38:41;100323.18;;;14.39;69.11
62248;BME280;48237;50.140;8.486;2022-07-06T04:40:07;100318.91;;;14.38;68.58
62248;BME280;48237;50.140;8.486;2022-07-06T04:41:10;100320.65;;;14.15;68.63
62248;BME280;48237;50.140;8.486;2022-07-06T04:42:37;100328.40;;;13.88;70.07
62248;BME280;48237;50.140;8.486;2022-07-06T04:43:38;100332.95;;;13.23;72.34
62248;BME280;48237;50.140;8.486;2022-07-06T04:45:07;100326.14;;;14.20;70.24
62248;BME280;48237;50.140;8.486;2022-07-06T04:46:07;100327.45;;;14.04;70.45
62248;BME280;48237;50.140;8.486;2022-07-06T04:47:36;100320.37;;;14.52;68.72
62248;BME280;48237;50.140;8.486;2022-07-06T04:48:35;100322.03;;;14.36;68.00
62248;BME280;48237;50.140;8.486;2022-07-06T04:50:06;100323.92;;;14.87;66.57
62248;BME280;48237;50.140;8.486;2022-07-06T04:51:05;100326.85;;;14.31;67.97
62248;BME280;48237;50.140;8.486;2022-07-06T04:52:35;100324.09;;;14.80;66.97
62248;BME280;48237;50.140;8.486;2022-07-06T04:53:33;100324.04;;;14.74;67.03
62248;BME280;48237;50.140;8.486;2022-07-06T04:55:05;100321.11;;;14.93;65.56
62248;BME280;48237;50.140;8.486;2022-07-06T04:56:04;100329.19;;;15.31;65.26
62248;BME280;48237;50.140;8.486;2022-07-06T04:57:33;100326.65;;;14.66;66.68
62248;BME280;48237;50.140;8.486;2022-07-06T04:58:32;100324.77;;;14.80;67.54
62248;BME280;48237;50.140;8.486;2022-07-06T05:00:05;100326.51;;;14.81;66.63
62248;BME280;48237;50.140;8.486;2022-07-06T05:01:01;100320.47;;;15.04;65.46
62248;BME280;48237;50.140;8.486;2022-07-06T05:02:34;100323.75;;;14.96;66.07
62248;BME280;48237;50.140;8.486;2022-07-06T05:03:29;100326.45;;;14.88;66.93
62248;BME280;48237;50.140;8.486;2022-07-06T05:05:03;100329.43;;;15.32;65.59
62248;BME280;48237;50.140;8.486;2022-07-06T05:05:58;100329.73;;;15.03;65.53
62248;BME280;48237;50.140;8.486;2022-07-06T05:07:31;100325.05;;;15.44;65.16
62248;BME280;48237;50.140;8.486;2022-07-06T05:08:26;100326.16;;;15.16;65.89
62248;BME280;48237;50.140;8.486;2022-07-06T05:09:59;100330.30;;;15.23;65.90
62248;BME280;48237;50.140;8.486;2022-07-06T05:10:54;100335.59;;;15.09;65.69
62248;BME280;48237;50.140;8.486;2022-07-06T05:12:28;100335.37;;;14.93;66.80
62248;BME280;48237;50.140;8.486;2022-07-06T05:13:23;100328.90;;;15.12;66.93
62248;BME280;48237;50.140;8.486;2022-07-06T05:14:58;100335.68;;;15.65;64.89
62248;BME280;48237;50.140;8.486;2022-07-06T05:15:51;100341.40;;;15.44;64.76
62248;BME280;48237;50.140;8.486;2022-07-06T05:17:27;100340.93;;;16.01;62.76
62248;BME280;48237;50.140;8.486;2022-07-06T05:18:19;100345.47;;;15.65;63.89
62248;BME280;48237;50.140;8.486;2022-07-06T05:19:55;100344.27;;;16.11;62.97
62248;BME280;48237;50.140;8.486;2022-07-06T05:20:47;100346.89;;;15.60;62.96
62248;BME280;48237;50.140;8.486;2022-07-06T05:22:24;100342.02;;;15.24;65.52
62248;BME280;48237;50.140;8.486;2022-07-06T05:23:15;100341.18;;;14.94;65.47
62248;BME280;48237;50.140;8.486;2022-07-06T05:24:52;100336.58;;;15.23;65.72
62248;BME280;48237;50.140;8.486;2022-07-06T05:25:44;100337.71;;;15.52;65.11
62248;BME280;48237;50.140;8.486;2022-07-06T05:27:20;100344.63;;;15.14;66.83
62248;BME280;48237;50.140;8.486;2022-07-06T05:28:13;100340.03;;;15.03;65.57
62248;BME280;48237;50.140;8.486;2022-07-06T05:29:48;100343.71;;;15.15;65.84
62248;BME280;48237;50.140;8.486;2022-07-06T05:30:51;100343.74;;;15.55;64.16
62248;BME280;48237;50.140;8.486;2022-07-06T05:32:17;100346.06;;;15.12;65.00
62248;BME280;48237;50.140;8.486;2022-07-06T05:33:20;100352.09;;;15.04;65.79
62248;BME280;48237;50.140;8.486;2022-07-06T05:34:45;100350.76;;;15.66;64.15
62248;BME280;48237;50.140;8.486;2022-07-06T05:35:49;100353.87;;;15.18;65.07
62248;BME280;48237;50.140;8.486;2022-07-06T05:37:13;100357.06;;;15.66;64.46
62248;BME280;48237;50.140;8.486;2022-07-06T05:38:17;100353.53;;;15.68;62.93
62248;BME280;48237;50.140;8.486;2022-07-06T05:39:43;100351.78;;;16.33;61.56
62248;BME280;48237;50.140;8.486;2022-07-06T05:40:46;100356.28;;;15.83;63.23
62248;BME280;48237;50.140;8.486;2022-07-06T05:42:12;100354.24;;;16.22;61.54
62248;BME280;48237;50.140;8.486;2022-07-06T05:43:15;100355.46;;;16.03;62.27
62248;BME280;48237;50.140;8.486;2022-07-06T05:44:44;100354.63;;;15.94;62.93
62248;BME280;48237;50.140;8.486;2022-07-06T05:45:45;100356.68;;;15.30;63.92
62248;BME280;48237;50.140;8.486;2022-07-06T05:47:13;100355.74;;;15.62;63.52
62248;BME280;48237;50.140;8.486;2022-07-06T05:48:13;100351.40;;;15.45;63.91
62248;BME280;48237;50.140;8.486;2022-07-06T05:49:45;100351.34;;;15.85;64.46
62248;BME280;48237;50.140;8.486;2022-07-06T05:50:42;100353.88;;;14.92;65.25
62248;BME280;48237;50.140;8.486;2022-07-06T05:52:14;100351.01;;;15.15;65.02
62248;BME280;48237;50.140;8.486;2022-07-06T05:53:10;100352.84;;;15.58;63.30
62248;BME280;48237;50.140;8.486;2022-07-06T05:54:45;100354.29;;;15.20;63.64
62248;BME280;48237;50.140;8.486;2022-07-06T05:55:38;100351.64;;;15.63;62.80
62248;BME280;48237;50.140;8.486;2022-07-06T05:57:14;100354.72;;;15.38;65.68
62248;BME280;48237;50.140;8.486;2022-07-06T05:58:07;100357.04;;;15.49;64.58
62248;BME280;48237;50.140;8.486;2022-07-06T05:59:43;100362.50;;;15.11;64.54
62248;BME280;48237;50.140;8.486;2022-07-06T06:00:35;100365.15;;;15.43;62.14
62248;BME280;48237;50.140;8.486;2022-07-06T06:02:12;100367.32;;;15.61;63.72
62248;BME280;48237;50.140;8.486;2022-07-06T06:03:04;100369.58;;;15.45;62.94
62248;BME280;48237;50.140;8.486;2022-07-06T06:04:40;100372.51;;;15.39;62.05
62248;BME280;48237;50.140;8.486;2022-07-06T06:05:32;100373.50;;;16.07;61.20
62248;BME280;48237;50.140;8.486;2022-07-06T06:07:09;100381.12;;;16.11;60.42
62248;BME280;48237;50.140;8.486;2022-07-06T06:08:00;100383.77;;;15.66;60.34
62248;BME280;48237;50.140;8.486;2022-07-06T06:09:38;100381.15;;;16.64;58.73
62248;BME280;48237;50.140;8.486;2022-07-06T06:10:29;100381.32;;;15.82;61.68
62248;BME280;48237;50.140;8.486;2022-07-06T06:12:07;100372.26;;;17.20;58.12
62248;BME280;48237;50.140;8.486;2022-07-06T06:12:57;100373.35;;;17.31;56.67
62248;BME280;48237;50.140;8.486;2022-07-06T06:14:35;100373.89;;;17.06;57.91
62248;BME280;48237;50.140;8.486;2022-07-06T06:15:26;100372.34;;;16.84;58.55
62248;BME280;48237;50.140;8.486;2022-07-06T06:17:05;100372.97;;;16.86;58.11
62248;BME280;48237;50.140;8.486;2022-07-06T06:17:54;100373.63;;;16.21;60.18
62248;BME280;48237;50.140;8.486;2022-07-06T06:19:33;100373.58;;;15.17;61.23
62248;BME280;48237;50.140;8.486;2022-07-06T06:20:22;100372.34;;;16.11;60.61
62248;BME280;48237;50.140;8.486;2022-07-06T06:22:01;100373.46;;;15.71;60.65
62248;BME280;48237;50.140;8.486;2022-07-06T06:22:55;100374.22;;;15.49;60.71
62248;BME280;48237;50.140;8.486;2022-07-06T06:24:30;100368.93;;;15.41;62.67
62248;BME280;48237;50.140;8.486;2022-07-06T06:25:29;100368.85;;;15.61;60.88
62248;BME280;48237;50.140;8.486;2022-07-06T06:26:58;100366.56;;;14.98;62.78
62248;BME280;48237;50.140;8.486;2022-07-06T06:27:57;100369.22;;;15.31;62.44
62248;BME280;48237;50.140;8.486;2022-07-06T06:29:27;100369.44;;;15.96;61.23
62248;BME280;48237;50.140;8.486;2022-07-06T06:30:26;100371.25;;;14.82;63.16
62248;BME280;48237;50.140;8.486;2022-07-06T06:31:56;100375.18;;;15.42;62.45
62248;BME280;48237;50.140;8.486;2022-07-06T06:33:13;100375.84;;;14.90;62.39
62248;BME280;48237;50.140;8.486;2022-07-06T06:34:24;100376.29;;;15.46;62.27
62248;BME280;48237;50.140;8.486;2022-07-06T06:35:43;100373.98;;;15.23;62.39